Terminal Aerodrome Forecast
Issued by NWS

Home | Current Version | Previous Version | Text Only | Print | Product List | Glossary On
Versions: 1 2 3 4 5 6 7 8 9 10 11 12 13 14 15 16 17 18 19 20 21 22 23 24 25 26
000
FTUS44 KOHX 230400 AAD
TAFCKV
TAF AMD
KCKV 230437Z 2305/2324 16008KT P6SM VCSH OVC009
      TEMPO 2308/2312 3SM -SHRA BR OVC007
     FM231500 06005KT 2SM -SHRA BR OVC007
     FM231800 04005KT 4SM -SHRA BR VCTS BKN007CB OVC015=

USA.gov is the U.S. government's official web portal to all federal, state and local government web resources and services.